North Branford, CT (06471)

1:27 AM EST on February 07, 2016 (GMT -0500)
Branford | | Change Station
CLOSE
Current Station
Personal Weather Station
Location: Branford, CT
Elevation: 125 ft
Nearby Weather Stations

Elev 125 ft 41.30 °N, 72.79 °W | Updated 3 seconds ago

Partly Cloudy
Partly Cloudy
26.9 °F
Feels Like 27 °F
N
0.0
Wind Variable Wind from WSW
Gusts 0.0 mph

Today
High -- | Low -- °F
--% Chance of Precip.
Yesterday
High -- | Low -- °F
Precip. -- in
Pressure 30.24 in
Visibility 10.0 miles
Clouds Clear
Windchill 27 °F
Dew Point 24 °F
Humidity 89%
Rainfall 0.00 in
Snow Depth Not available.
6:56 AM 5:14 PM
Waning Crescent, 2% visible
METAR KHVN 070553Z AUTO 00000KT 10SM CLR 01/M03 A3023 RMK AO2 SLP238 T00061033 10028 21017 58014 $
Pressure 30.24 in
Visibility 10.0 miles
Clouds Clear
Windchill 27 °F
Dew Point 24 °F
Humidity 89%
Rainfall 0.00 in
Snow Depth Not available.
6:56 AM 5:14 PM
Waning Crescent, 2% visible
METAR KHVN 070553Z AUTO 00000KT 10SM CLR 01/M03 A3023 RMK AO2 SLP238 T00061033 10028 21017 58014 $

10-Day Weather Forecast

Almanac

Astronomy

Feb. 07, 2016 Rise Set
Actual Time
Civil Twilight
Nautical Twilight
Astronomical Twilight
Moon
Length of Visible Light
Length of Day
Tomorrow will be .
, % of the Moon is Illuminated

Today's Extremes

State Highs State Lows

Community

WunderPhotos

Upload Photos

1,891,175 photos uploaded!

WunderBlog® & News

Nearby

Air Quality

  Air Quality AQ Index Pollutant
Not available.

Snow Depth

Station Depth Elevation

Earthquake Activity

City Distance Mag. Time & Date
Minimum magnitude displayed is 2.5.

Coastal Water Temperatures

Place Temperature

Stations

Nearby Weather Stations

Station Location Temp. Windchill Dew Point Humidity Wind Precip. Elev Updated Type
                   

Watches & Warnings

There are currently no watches in effect.